Adams, Nebraska
Current Conditions -  °F | °C
As of 1:15 AM on Wednesday 22 Oct 2014 (Local Time) from KBIE Reporting Station
Clear Clear  
Wind Chill: 59°   Ceiling: Unl
Heat Index: 59°   Visibility: 10mi
Dew Point: 44°   Wind: 10mph
Humidity: 58%   Direction: 150°SSE
Pressure: 30.04"   Gusts: 16mph
Location:  40.46°N, 96.51°W
Report Text: KBIE 220615Z AUTO 15009G14KT 10SM CLR 15/07 A3004 RMK AO2 T01490068
Loading
Personal Weather Stations






























Interactive Weather Map
Tropical Storm Tracking
New forecast layout! Learn more

10-Day Weather Forecast

Advertisements
Track Severe Weather on mobile